createdAt,value
2022-11-28T00:00:05.651Z,1.39
2022-11-28T00:02:35.179Z,1.36
2022-11-28T00:05:03.830Z,1.36
2022-11-28T00:07:33.111Z,1.49
2022-11-28T00:10:02.741Z,1.45
2022-11-28T00:12:31.855Z,1.46
2022-11-28T00:15:02.305Z,1.52
2022-11-28T00:17:30.633Z,1.58
2022-11-28T00:19:59.866Z,1.51
2022-11-28T00:22:29.683Z,1.59
2022-11-28T00:24:58.685Z,1.72
2022-11-28T00:27:27.978Z,1.75
2022-11-28T00:29:57.488Z,1.63
2022-11-28T00:32:28.628Z,1.57
2022-11-28T00:34:57.684Z,1.57
2022-11-28T00:37:26.253Z,1.68
2022-11-28T00:39:54.740Z,1.52
2022-11-28T00:42:29.256Z,1.43
2022-11-28T00:44:58.270Z,1.37
2022-11-28T00:47:28.382Z,1.33
2022-11-28T00:49:56.842Z,1.36
2022-11-28T00:52:25.320Z,1.34
2022-11-28T00:54:54.132Z,1.34
2022-11-28T00:57:22.473Z,1.36
2022-11-28T00:59:53.248Z,1.41
2022-11-28T01:02:22.138Z,1.40
2022-11-28T01:04:52.604Z,1.41
2022-11-28T01:07:20.894Z,1.41
2022-11-28T01:09:49.427Z,1.41
2022-11-28T01:12:17.692Z,1.44
2022-11-28T01:14:46.487Z,1.44
2022-11-28T01:17:14.698Z,1.46
2022-11-28T01:19:43.252Z,1.39
2022-11-28T01:22:13.367Z,1.38
2022-11-28T01:24:44.420Z,1.36
2022-11-28T01:27:14.062Z,1.50
2022-11-28T01:29:42.770Z,1.58
2022-11-28T01:32:11.241Z,1.64
2022-11-28T01:34:40.123Z,1.56
2022-11-28T01:37:09.226Z,1.51
2022-11-28T01:39:40.167Z,1.52
2022-11-28T01:42:08.734Z,1.54
2022-11-28T01:45:13.572Z,1.53
2022-11-28T01:47:42.852Z,1.48
2022-11-28T01:50:13.217Z,1.48
2022-11-28T01:52:45.652Z,1.52
2022-11-28T01:55:19.413Z,1.50
2022-11-28T01:57:48.389Z,1.52
2022-11-28T02:00:20.591Z,1.50
2022-11-28T02:02:51.694Z,1.41
2022-11-28T02:05:23.332Z,1.55
2022-11-28T02:07:53.411Z,1.52
2022-11-28T02:10:30.160Z,1.52
2022-11-28T02:13:15.348Z,1.53
2022-11-28T02:16:02.084Z,1.52
2022-11-28T02:18:50.187Z,1.54
2022-11-28T02:21:31.024Z,1.59
2022-11-28T02:24:35.115Z,1.62
2022-11-28T02:27:30.850Z,1.71
2022-11-28T02:30:12.721Z,1.77
2022-11-28T02:33:05.978Z,1.74
2022-11-28T02:35:43.566Z,1.70
2022-11-28T02:38:23.714Z,1.75
2022-11-28T02:41:01.321Z,1.76
2022-11-28T02:43:37.785Z,1.73
2022-11-28T02:46:15.208Z,1.82
2022-11-28T02:48:51.838Z,1.84
2022-11-28T02:51:26.182Z,1.85
2022-11-28T02:53:58.079Z,1.85
2022-11-28T02:56:28.194Z,1.84
2022-11-28T02:58:56.947Z,1.87
2022-11-28T03:01:30.304Z,1.80
2022-11-28T03:04:27.221Z,1.83
2022-11-28T03:07:05.553Z,1.91
2022-11-28T03:09:47.887Z,1.89
2022-11-28T03:12:27.134Z,1.93
2022-11-28T03:14:57.958Z,1.85
2022-11-28T03:17:38.224Z,1.76
2022-11-28T03:20:19.278Z,1.84
2022-11-28T03:23:00.961Z,1.90
2022-11-28T03:25:35.869Z,1.89
2022-11-28T03:28:11.537Z,1.89
2022-11-28T03:30:45.564Z,1.87
2022-11-28T03:33:14.880Z,1.89
2022-11-28T03:35:50.818Z,1.85
2022-11-28T03:38:23.859Z,1.88
2022-11-28T03:40:56.742Z,1.88
2022-11-28T03:43:34.489Z,1.87
2022-11-28T03:46:09.528Z,1.94
2022-11-28T03:48:44.567Z,1.85
2022-11-28T03:51:20.409Z,1.89
2022-11-28T03:53:55.763Z,1.89
2022-11-28T03:56:28.444Z,1.82
2022-11-28T03:59:02.243Z,1.82
2022-11-28T04:01:36.530Z,1.97
2022-11-28T04:04:16.459Z,1.93
2022-11-28T04:06:55.475Z,1.97
2022-11-28T04:09:37.830Z,2.02
2022-11-28T04:12:16.083Z,2.00
2022-11-28T04:14:51.105Z,1.98
2022-11-28T04:17:25.379Z,2.01
2022-11-28T04:19:57.784Z,2.05
2022-11-28T04:22:32.956Z,2.19
2022-11-28T04:25:07.647Z,2.16
2022-11-28T04:27:39.482Z,2.10
2022-11-28T04:30:11.529Z,2.21
2022-11-28T04:32:47.824Z,2.24
2022-11-28T04:35:22.087Z,2.16
2022-11-28T04:37:54.733Z,2.19
2022-11-28T04:40:27.308Z,2.17
2022-11-28T04:43:00.030Z,2.21
2022-11-28T04:45:33.847Z,2.20
2022-11-28T04:48:03.966Z,2.16
2022-11-28T04:50:38.205Z,2.21
2022-11-28T04:53:14.547Z,2.18
2022-11-28T04:55:48.843Z,2.16
2022-11-28T04:58:23.348Z,2.08
2022-11-28T05:00:55.106Z,2.21
2022-11-28T05:03:28.619Z,2.23
2022-11-28T05:05:57.432Z,2.22
2022-11-28T05:08:27.895Z,2.28
2022-11-28T05:10:56.447Z,2.25
2022-11-28T05:13:24.902Z,2.28
2022-11-28T05:15:53.635Z,2.05
2022-11-28T05:18:22.223Z,2.08
2022-11-28T05:20:50.625Z,2.02
2022-11-28T05:23:19.571Z,1.92
2022-11-28T05:25:49.784Z,1.87
2022-11-28T05:28:18.542Z,1.86
2022-11-28T05:30:57.621Z,1.91
2022-11-28T05:33:26.415Z,1.91
2022-11-28T05:35:55.499Z,1.98
2022-11-28T05:38:24.216Z,2.00
2022-11-28T05:40:54.221Z,1.90
2022-11-28T05:43:23.168Z,1.94
2022-11-28T05:45:52.260Z,1.94
2022-11-28T05:48:21.177Z,1.93
2022-11-28T05:50:51.272Z,1.92
2022-11-28T05:53:22.398Z,2.00
2022-11-28T05:55:50.883Z,1.99
2022-11-28T05:58:20.813Z,2.05
2022-11-28T06:00:49.375Z,1.97
2022-11-28T06:03:17.685Z,1.98
2022-11-28T06:05:46.156Z,1.92
2022-11-28T06:08:14.856Z,1.98
2022-11-28T06:10:43.257Z,1.99
2022-11-28T06:13:11.626Z,1.96
2022-11-28T06:15:45.662Z,2.11
2022-11-28T06:18:14.118Z,2.17
2022-11-28T06:20:43.312Z,2.18
2022-11-28T06:23:11.884Z,2.10
2022-11-28T06:25:40.596Z,2.17
2022-11-28T06:28:09.075Z,2.24
2022-11-28T06:30:38.261Z,2.25
2022-11-28T06:33:08.295Z,2.20
2022-11-28T06:35:38.704Z,2.18
2022-11-28T06:38:12.884Z,2.23
2022-11-28T06:40:43.488Z,2.23
2022-11-28T06:43:12.143Z,2.12
2022-11-28T06:45:41.100Z,2.23
2022-11-28T06:48:11.394Z,2.22
2022-11-28T06:50:40.229Z,2.15
2022-11-28T06:53:09.322Z,2.23
2022-11-28T06:55:37.986Z,2.27
2022-11-28T06:58:07.905Z,2.14
2022-11-28T07:00:36.818Z,2.11
2022-11-28T07:03:05.585Z,1.92
2022-11-28T07:05:36.342Z,2.12
2022-11-28T07:08:05.540Z,2.04
2022-11-28T07:10:35.142Z,2.15
2022-11-28T07:13:05.587Z,1.99
2022-11-28T07:15:34.696Z,2.08
2022-11-28T07:18:03.254Z,2.05
2022-11-28T07:20:32.173Z,2.13
2022-11-28T07:23:02.087Z,2.14
2022-11-28T07:25:30.864Z,2.17
2022-11-28T07:28:00.874Z,2.16
2022-11-28T07:30:29.464Z,2.20
2022-11-28T07:32:58.159Z,2.21
2022-11-28T07:35:26.741Z,2.23
2022-11-28T07:37:56.385Z,2.23
2022-11-28T07:40:27.190Z,2.18
2022-11-28T07:42:55.999Z,2.24
2022-11-28T07:45:41.669Z,2.28
2022-11-28T07:48:13.624Z,2.31
2022-11-28T07:50:42.450Z,2.36
2022-11-28T07:53:11.570Z,2.41
2022-11-28T07:55:41.567Z,2.45
2022-11-28T07:58:10.952Z,2.42
2022-11-28T08:00:39.424Z,2.33
2022-11-28T08:03:07.910Z,2.33
2022-11-28T08:05:36.630Z,2.35
2022-11-28T08:08:05.796Z,2.30
2022-11-28T08:10:34.623Z,2.35
2022-11-28T08:13:05.143Z,2.35
2022-11-28T08:15:34.574Z,2.35
2022-11-28T08:18:03.856Z,2.36
2022-11-28T08:20:32.442Z,2.36
2022-11-28T08:23:01.231Z,2.45
2022-11-28T08:25:29.838Z,2.45
2022-11-28T08:27:58.407Z,2.42
2022-11-28T08:30:29.044Z,2.44
2022-11-28T08:32:57.944Z,2.54
2022-11-28T08:35:28.975Z,2.59
2022-11-28T08:38:01.654Z,2.54
2022-11-28T08:40:30.900Z,2.49
2022-11-28T08:43:00.461Z,2.62
2022-11-28T08:45:31.265Z,2.51
2022-11-28T08:48:01.876Z,2.76
2022-11-28T08:50:31.683Z,2.88
2022-11-28T08:53:07.526Z,2.78
2022-11-28T08:55:40.478Z,2.74
2022-11-28T08:58:10.841Z,2.74
2022-11-28T09:00:43.256Z,2.84
2022-11-28T09:03:14.875Z,2.92
2022-11-28T09:05:45.817Z,2.78
2022-11-28T09:08:15.302Z,2.85
2022-11-28T09:10:46.309Z,2.87
2022-11-28T09:13:16.548Z,2.98
2022-11-28T09:15:51.337Z,2.85
2022-11-28T09:18:22.629Z,3.12
2022-11-28T09:20:58.331Z,3.24
2022-11-28T09:23:27.412Z,3.30
2022-11-28T09:25:56.198Z,3.24
2022-11-28T09:28:29.500Z,3.26
2022-11-28T09:31:15.670Z,3.50
2022-11-28T09:33:45.039Z,3.42
2022-11-28T09:36:15.624Z,3.21
2022-11-28T09:38:45.792Z,3.29
2022-11-28T09:41:40.545Z,3.45
2022-11-28T09:44:12.033Z,3.56
2022-11-28T09:46:45.436Z,3.56
2022-11-28T09:49:25.898Z,3.60
2022-11-28T09:51:59.484Z,3.56
2022-11-28T09:54:39.590Z,3.73
2022-11-28T09:57:18.051Z,3.62
2022-11-28T09:59:48.669Z,3.57
2022-11-28T10:02:29.359Z,3.67
2022-11-28T10:05:09.801Z,3.45
2022-11-28T10:07:55.109Z,3.45
2022-11-28T10:10:33.856Z,3.45
2022-11-28T10:13:12.169Z,3.52
2022-11-28T10:15:48.022Z,3.44
2022-11-28T10:18:29.705Z,3.43
2022-11-28T10:21:03.313Z,3.63
2022-11-28T10:23:37.264Z,3.84
2022-11-28T10:26:08.338Z,3.94
2022-11-28T10:28:40.377Z,4.04
2022-11-28T10:31:15.067Z,4.05
2022-11-28T10:33:50.789Z,4.24
2022-11-28T10:36:27.946Z,4.35
2022-11-28T10:38:57.423Z,4.24
2022-11-28T10:41:33.050Z,4.13
2022-11-28T10:44:08.230Z,4.08
2022-11-28T10:46:53.358Z,4.17
2022-11-28T10:49:35.456Z,4.15
2022-11-28T10:52:13.488Z,4.21
2022-11-28T10:54:56.789Z,4.33
2022-11-28T10:57:31.717Z,4.44
2022-11-28T11:00:13.818Z,4.54
2022-11-28T11:02:47.510Z,4.63
2022-11-28T11:05:21.168Z,4.65
2022-11-28T11:07:54.103Z,4.40
2022-11-28T11:10:27.144Z,4.41
2022-11-28T11:12:56.163Z,4.41
2022-11-28T11:15:32.103Z,4.49
2022-11-28T11:18:05.556Z,4.48
2022-11-28T11:20:41.504Z,4.63
2022-11-28T11:23:17.942Z,4.84
2022-11-28T11:25:53.553Z,4.81
2022-11-28T11:28:36.572Z,4.81
2022-11-28T11:31:08.186Z,4.85
2022-11-28T11:33:40.268Z,4.94
2022-11-28T11:36:27.416Z,4.81
2022-11-28T11:39:08.927Z,5.08
2022-11-28T11:41:38.210Z,5.19
2022-11-28T11:44:30.637Z,4.98
2022-11-28T11:47:02.182Z,4.98
2022-11-28T11:49:32.856Z,5.17
2022-11-28T11:52:06.822Z,5.10
2022-11-28T11:54:35.997Z,5.17
2022-11-28T11:57:31.279Z,5.15
2022-11-28T11:59:57.760Z,5.16
2022-11-28T12:02:33.532Z,5.37
2022-11-28T12:05:06.374Z,5.42
2022-11-28T12:07:51.405Z,5.58
2022-11-28T12:10:24.088Z,5.42
2022-11-28T12:12:54.964Z,5.34
2022-11-28T12:15:33.508Z,5.58
2022-11-28T12:18:19.895Z,5.36
2022-11-28T12:21:09.885Z,5.46
2022-11-28T12:24:08.521Z,5.58
2022-11-28T12:26:46.559Z,5.45
2022-11-28T12:29:31.964Z,5.35
2022-11-28T12:32:13.184Z,5.22
2022-11-28T12:34:56.355Z,5.12
2022-11-28T12:38:02.921Z,5.18
2022-11-28T12:40:37.087Z,5.24
2022-11-28T12:43:25.665Z,5.14
2022-11-28T12:46:01.234Z,5.17
2022-11-28T12:48:52.884Z,4.95
2022-11-28T12:51:38.409Z,5.07
2022-11-28T12:57:41.741Z,5.06
2022-11-28T13:00:15.970Z,5.09
2022-11-28T13:02:58.078Z,5.00
2022-11-28T13:05:34.022Z,5.01
2022-11-28T13:08:48.838Z,4.86
2022-11-28T13:11:31.699Z,4.80
2022-11-28T13:14:11.309Z,4.98
2022-11-28T13:16:48.431Z,5.03
2022-11-28T13:19:32.020Z,4.85
2022-11-28T13:22:09.177Z,4.86
2022-11-28T13:24:49.186Z,4.71
2022-11-28T13:27:32.686Z,4.78
2022-11-28T13:30:21.945Z,4.71
2022-11-28T13:32:58.008Z,4.67
2022-11-28T13:35:34.207Z,4.60
2022-11-28T13:41:05.446Z,4.68
2022-11-28T13:43:49.950Z,4.66
2022-11-28T13:46:21.007Z,4.54
2022-11-28T13:49:20.635Z,4.51
2022-11-28T13:51:50.120Z,4.51
2022-11-28T13:54:46.430Z,4.61
2022-11-28T13:57:28.927Z,4.49
2022-11-28T14:00:22.730Z,4.42
2022-11-28T14:02:58.879Z,4.35
2022-11-28T14:05:36.560Z,4.32
2022-11-28T14:08:08.785Z,4.32
2022-11-28T14:10:57.158Z,4.33
2022-11-28T14:13:48.784Z,4.35
2022-11-28T14:16:30.651Z,4.17
2022-11-28T14:19:21.167Z,4.19
2022-11-28T14:22:06.703Z,4.22
2022-11-28T14:24:55.246Z,4.23
2022-11-28T14:27:28.093Z,4.17
2022-11-28T14:29:59.426Z,4.15
2022-11-28T14:32:41.419Z,4.16
2022-11-28T14:35:22.843Z,4.15
2022-11-28T14:37:58.177Z,4.17
2022-11-28T14:41:06.760Z,4.18
2022-11-28T14:43:40.173Z,4.16
2022-11-28T14:46:32.807Z,4.10
2022-11-28T14:49:22.588Z,4.24
2022-11-28T14:55:42.812Z,4.17
2022-11-28T14:58:18.788Z,4.10
2022-11-28T15:00:54.824Z,4.05
2022-11-28T15:03:38.735Z,3.99
2022-11-28T15:06:23.563Z,3.98
2022-11-28T15:09:06.021Z,3.91
2022-11-28T15:11:48.957Z,4.02
2022-11-28T15:14:27.272Z,3.92
2022-11-28T15:17:07.907Z,3.88
2022-11-28T15:19:41.821Z,3.94
2022-11-28T15:22:33.890Z,3.90
2022-11-28T15:25:04.782Z,3.87
2022-11-28T15:27:33.531Z,3.83
2022-11-28T15:30:05.190Z,3.81
2022-11-28T15:32:34.972Z,3.72
2022-11-28T15:35:12.602Z,3.80
2022-11-28T15:37:47.408Z,3.76
2022-11-28T15:40:22.511Z,3.71
2022-11-28T15:42:52.067Z,3.73
2022-11-28T15:45:29.037Z,3.72
2022-11-28T15:48:00.065Z,3.70
2022-11-28T15:50:32.749Z,3.64
2022-11-28T15:53:03.617Z,3.62
2022-11-28T15:55:36.163Z,3.63
2022-11-28T15:58:21.175Z,3.66
2022-11-28T16:01:01.346Z,3.56
2022-11-28T16:03:34.703Z,3.56
2022-11-28T16:06:06.650Z,3.53
2022-11-28T16:08:40.760Z,3.43
2022-11-28T16:11:18.151Z,3.49
2022-11-28T16:13:47.587Z,3.50
2022-11-28T16:16:20.565Z,3.40
2022-11-28T16:18:57.425Z,3.36
2022-11-28T16:21:29.225Z,3.39
2022-11-28T16:24:01.101Z,3.36
2022-11-28T16:26:35.709Z,3.29
2022-11-28T16:29:17.190Z,3.34
2022-11-28T16:31:48.046Z,3.25
2022-11-28T16:34:18.748Z,3.25
2022-11-28T16:36:50.392Z,3.29
2022-11-28T16:39:20.131Z,3.13
2022-11-28T16:41:55.070Z,3.24
2022-11-28T16:44:26.441Z,3.28
2022-11-28T16:46:56.810Z,3.13
2022-11-28T16:49:36.576Z,3.18
2022-11-28T16:52:57.863Z,3.18
2022-11-28T16:55:46.904Z,3.13
2022-11-28T16:58:22.960Z,3.14
2022-11-28T17:01:01.881Z,3.14
2022-11-28T17:03:48.681Z,3.19
2022-11-28T17:06:23.322Z,3.16
2022-11-28T17:08:52.001Z,3.07
2022-11-28T17:11:23.490Z,3.14
2022-11-28T17:13:57.221Z,3.09
2022-11-28T17:16:29.751Z,2.88
2022-11-28T17:18:58.306Z,3.12
2022-11-28T17:21:33.605Z,2.97
2022-11-28T17:24:04.034Z,3.12
2022-11-28T17:26:32.826Z,3.10
2022-11-28T17:29:04.065Z,3.02
2022-11-28T17:31:32.593Z,3.04
2022-11-28T17:34:01.179Z,2.90
2022-11-28T17:36:30.627Z,3.00
2022-11-28T17:39:05.035Z,2.85
2022-11-28T17:41:34.275Z,3.03
2022-11-28T17:44:04.697Z,2.96
2022-11-28T17:46:33.476Z,2.93
2022-11-28T17:49:03.700Z,2.91
2022-11-28T17:51:33.870Z,2.99
2022-11-28T17:54:03.061Z,2.98
2022-11-28T17:56:32.882Z,2.89
2022-11-28T17:59:02.773Z,3.01
2022-11-28T18:01:33.270Z,2.96
2022-11-28T18:04:02.212Z,2.78
2022-11-28T18:06:30.879Z,3.00
2022-11-28T18:09:08.633Z,3.13
2022-11-28T18:11:41.373Z,3.12
2022-11-28T18:14:10.787Z,3.00
2022-11-28T18:16:44.091Z,2.99
2022-11-28T18:19:12.917Z,2.91
2022-11-28T18:21:41.564Z,3.03
2022-11-28T18:24:10.516Z,2.99
2022-11-28T18:26:38.744Z,3.01
2022-11-28T18:29:08.869Z,2.93
2022-11-28T18:31:48.223Z,3.03
2022-11-28T18:34:17.087Z,2.95
2022-11-28T18:36:46.497Z,2.98
2022-11-28T18:39:17.483Z,2.95
2022-11-28T18:41:45.781Z,2.89
2022-11-28T18:44:14.883Z,2.84
2022-11-28T18:46:46.234Z,2.94
2022-11-28T18:49:17.012Z,2.94
2022-11-28T18:51:45.501Z,2.74
2022-11-28T18:54:20.609Z,2.89
2022-11-28T18:56:49.918Z,2.91
2022-11-28T18:59:18.573Z,2.85
2022-11-28T19:01:48.975Z,2.76
2022-11-28T19:04:18.410Z,2.78
2022-11-28T19:06:48.760Z,2.71
2022-11-28T19:09:19.225Z,2.75
2022-11-28T19:11:48.914Z,2.78
2022-11-28T19:14:22.248Z,2.72
2022-11-28T19:16:55.191Z,2.75
2022-11-28T19:19:23.776Z,2.82
2022-11-28T19:21:54.413Z,2.80
2022-11-28T19:24:23.252Z,2.73
2022-11-28T19:26:52.611Z,2.78
2022-11-28T19:29:21.138Z,2.69
2022-11-28T19:31:51.178Z,2.77
2022-11-28T19:34:24.023Z,2.77
2022-11-28T19:36:52.794Z,2.88
2022-11-28T19:39:23.615Z,2.89
2022-11-28T19:41:54.555Z,2.85
2022-11-28T19:44:25.235Z,2.85
2022-11-28T19:46:54.627Z,2.92
2022-11-28T19:49:26.392Z,2.78
2022-11-28T19:51:56.682Z,2.92
2022-11-28T19:54:26.899Z,2.96
2022-11-28T19:56:58.895Z,3.00
2022-11-28T19:59:28.916Z,3.04
2022-11-28T20:01:57.931Z,2.98
2022-11-28T20:04:28.344Z,3.00
2022-11-28T20:06:57.628Z,3.05
2022-11-28T20:09:26.242Z,3.03
2022-11-28T20:11:54.928Z,2.97
2022-11-28T20:14:23.240Z,3.05
2022-11-28T20:16:52.388Z,3.05
2022-11-28T20:19:21.011Z,3.10
2022-11-28T20:21:51.451Z,3.09
2022-11-28T20:24:20.033Z,2.98
2022-11-28T20:26:50.596Z,2.96
2022-11-28T20:29:21.012Z,2.97
2022-11-28T20:31:50.541Z,2.99
2022-11-28T20:34:20.109Z,2.96
2022-11-28T20:36:55.258Z,2.92
2022-11-28T20:39:25.601Z,2.94
2022-11-28T20:41:54.376Z,2.90
2022-11-28T20:44:23.099Z,2.94
2022-11-28T20:46:51.540Z,2.92
2022-11-28T20:49:20.882Z,2.98
2022-11-28T20:51:50.901Z,2.93
2022-11-28T20:54:21.580Z,2.94
2022-11-28T20:57:20.793Z,2.90
2022-11-28T20:59:40.580Z,2.94
2022-11-28T21:02:13.787Z,2.79
2022-11-28T21:04:44.760Z,2.83
2022-11-28T21:07:13.532Z,2.80
2022-11-28T21:09:43.638Z,2.98
2022-11-28T21:12:20.694Z,2.89
2022-11-28T21:14:49.464Z,2.89
2022-11-28T21:17:18.124Z,2.85
2022-11-28T21:19:47.117Z,2.76
2022-11-28T21:22:15.522Z,2.78
2022-11-28T21:24:49.815Z,2.74
2022-11-28T21:27:18.861Z,2.76
2022-11-28T21:29:47.816Z,2.69
2022-11-28T21:32:17.979Z,2.64
2022-11-28T21:34:46.744Z,2.72
2022-11-28T21:37:16.485Z,2.72
2022-11-28T21:39:46.851Z,2.75
2022-11-28T21:42:20.576Z,2.75
2022-11-28T21:44:49.722Z,2.74
2022-11-28T21:47:18.320Z,2.72
2022-11-28T21:49:47.097Z,2.71
2022-11-28T21:52:17.138Z,2.71
2022-11-28T21:54:47.191Z,2.70
2022-11-28T21:57:15.770Z,2.73
2022-11-28T21:59:44.912Z,2.67
2022-11-28T22:02:16.155Z,2.62
2022-11-28T22:04:46.987Z,2.70
2022-11-28T22:07:17.895Z,2.72
2022-11-28T22:09:49.225Z,2.68
2022-11-28T22:12:18.623Z,2.62
2022-11-28T22:14:47.667Z,2.68
2022-11-28T22:17:16.219Z,2.63
2022-11-28T22:19:47.265Z,2.66
2022-11-28T22:22:17.660Z,2.78
2022-11-28T22:24:48.109Z,2.70
2022-11-28T22:27:17.019Z,2.74
2022-11-28T22:29:48.765Z,2.78
2022-11-28T22:32:18.602Z,2.71
2022-11-28T22:34:48.567Z,2.74
2022-11-28T22:37:21.662Z,2.71
2022-11-28T22:39:52.305Z,2.74
2022-11-28T22:42:20.553Z,2.74
2022-11-28T22:44:49.037Z,2.67
2022-11-28T22:47:17.600Z,2.69
2022-11-28T22:49:46.163Z,2.68
2022-11-28T22:52:17.249Z,2.68
2022-11-28T22:54:46.339Z,2.65
2022-11-28T22:57:16.441Z,2.58
2022-11-28T22:59:45.500Z,2.66
2022-11-28T23:02:14.130Z,2.70
2022-11-28T23:04:42.787Z,2.68
2022-11-28T23:07:11.786Z,2.66
2022-11-28T23:09:40.548Z,2.67
2022-11-28T23:12:09.170Z,2.66
2022-11-28T23:14:39.591Z,2.59
2022-11-28T23:17:08.069Z,2.65
2022-11-28T23:19:37.483Z,2.58
2022-11-28T23:22:05.776Z,2.66
2022-11-28T23:24:34.433Z,2.62
2022-11-28T23:27:03.150Z,2.62
2022-11-28T23:29:31.909Z,2.59
2022-11-28T23:32:02.605Z,2.60
2022-11-28T23:34:31.050Z,2.56
2022-11-28T23:36:59.745Z,2.60
2022-11-28T23:39:30.390Z,2.59
2022-11-28T23:41:59.386Z,2.58
2022-11-28T23:44:27.973Z,2.56
2022-11-28T23:46:57.124Z,2.57
2022-11-28T23:49:27.711Z,2.59
2022-11-28T23:51:57.535Z,2.50
2022-11-28T23:54:26.301Z,2.59
2022-11-28T23:56:55.136Z,2.59
2022-11-28T23:59:23.786Z,2.57
